sensor_id;sensor_type;location;lat;lon;timestamp;P1;durP1;ratioP1;P2;durP2;ratioP2
72194;SDS011;60095;50.180;9.032;2022-08-27T00:01:16;14.77;;;10.27;;
72194;SDS011;60095;50.180;9.032;2022-08-27T00:03:43;13.18;;;10.20;;
72194;SDS011;60095;50.180;9.032;2022-08-27T00:06:10;14.55;;;9.57;;
72194;SDS011;60095;50.180;9.032;2022-08-27T00:08:38;11.35;;;10.23;;
72194;SDS011;60095;50.180;9.032;2022-08-27T00:11:04;9.50;;;8.70;;
72194;SDS011;60095;50.180;9.032;2022-08-27T00:13:32;10.57;;;9.48;;
72194;SDS011;60095;50.180;9.032;2022-08-27T00:15:58;17.17;;;10.30;;
72194;SDS011;60095;50.180;9.032;2022-08-27T00:18:24;14.35;;;10.00;;
72194;SDS011;60095;50.180;9.032;2022-08-27T00:20:51;8.30;;;7.50;;
72194;SDS011;60095;50.180;9.032;2022-08-27T00:23:17;9.30;;;8.48;;
72194;SDS011;60095;50.180;9.032;2022-08-27T00:25:43;10.18;;;8.23;;
72194;SDS011;60095;50.180;9.032;2022-08-27T00:28:10;9.60;;;8.60;;
72194;SDS011;60095;50.180;9.032;2022-08-27T00:30:38;18.77;;;9.85;;
72194;SDS011;60095;50.180;9.032;2022-08-27T00:33:04;8.38;;;7.60;;
72194;SDS011;60095;50.180;9.032;2022-08-27T00:35:31;10.25;;;9.30;;
72194;SDS011;60095;50.180;9.032;2022-08-27T00:37:58;13.65;;;9.82;;
72194;SDS011;60095;50.180;9.032;2022-08-27T00:40:24;9.73;;;8.93;;
72194;SDS011;60095;50.180;9.032;2022-08-27T00:42:51;13.23;;;8.75;;
72194;SDS011;60095;50.180;9.032;2022-08-27T00:45:18;8.95;;;8.05;;
72194;SDS011;60095;50.180;9.032;2022-08-27T00:47:47;15.95;;;10.60;;
72194;SDS011;60095;50.180;9.032;2022-08-27T00:50:15;12.63;;;8.98;;
72194;SDS011;60095;50.180;9.032;2022-08-27T00:52:44;8.15;;;7.45;;
72194;SDS011;60095;50.180;9.032;2022-08-27T00:55:11;11.38;;;10.27;;
72194;SDS011;60095;50.180;9.032;2022-08-27T00:57:39;9.70;;;8.80;;
72194;SDS011;60095;50.180;9.032;2022-08-27T01:00:08;8.68;;;8.00;;
72194;SDS011;60095;50.180;9.032;2022-08-27T01:02:34;13.05;;;8.85;;
72194;SDS011;60095;50.180;9.032;2022-08-27T01:05:05;12.75;;;8.65;;
72194;SDS011;60095;50.180;9.032;2022-08-27T01:07:34;7.90;;;7.13;;
72194;SDS011;60095;50.180;9.032;2022-08-27T01:10:01;9.77;;;7.72;;
72194;SDS011;60095;50.180;9.032;2022-08-27T01:12:28;10.75;;;9.07;;
72194;SDS011;60095;50.180;9.032;2022-08-27T01:14:55;11.25;;;8.95;;
72194;SDS011;60095;50.180;9.032;2022-08-27T01:17:21;9.52;;;8.57;;
72194;SDS011;60095;50.180;9.032;2022-08-27T01:19:49;16.73;;;8.85;;
72194;SDS011;60095;50.180;9.032;2022-08-27T01:22:21;9.98;;;9.07;;
72194;SDS011;60095;50.180;9.032;2022-08-27T01:24:51;10.07;;;9.05;;
72194;SDS011;60095;50.180;9.032;2022-08-27T01:27:20;9.93;;;7.00;;
72194;SDS011;60095;50.180;9.032;2022-08-27T01:29:47;9.32;;;8.45;;
72194;SDS011;60095;50.180;9.032;2022-08-27T01:32:14;9.45;;;8.60;;
72194;SDS011;60095;50.180;9.032;2022-08-27T01:34:41;9.30;;;7.38;;
72194;SDS011;60095;50.180;9.032;2022-08-27T01:37:08;14.43;;;8.05;;
72194;SDS011;60095;50.180;9.032;2022-08-27T01:39:35;15.50;;;8.30;;
72194;SDS011;60095;50.180;9.032;2022-08-27T01:42:05;9.27;;;8.10;;
72194;SDS011;60095;50.180;9.032;2022-08-27T01:44:46;6.90;;;5.60;;
72194;SDS011;60095;50.180;9.032;2022-08-27T01:47:13;8.07;;;7.35;;
72194;SDS011;60095;50.180;9.032;2022-08-27T01:49:39;20.90;;;9.70;;
72194;SDS011;60095;50.180;9.032;2022-08-27T01:52:05;11.18;;;6.60;;
72194;SDS011;60095;50.180;9.032;2022-08-27T01:54:32;8.90;;;7.43;;
72194;SDS011;60095;50.180;9.032;2022-08-27T01:56:58;6.43;;;5.80;;
72194;SDS011;60095;50.180;9.032;2022-08-27T01:59:26;9.18;;;8.20;;
72194;SDS011;60095;50.180;9.032;2022-08-27T02:01:53;8.73;;;6.63;;
72194;SDS011;60095;50.180;9.032;2022-08-27T02:04:19;5.38;;;4.57;;
72194;SDS011;60095;50.180;9.032;2022-08-27T02:06:45;9.68;;;6.50;;
72194;SDS011;60095;50.180;9.032;2022-08-27T02:09:12;7.13;;;6.53;;
72194;SDS011;60095;50.180;9.032;2022-08-27T02:11:38;9.63;;;6.70;;
72194;SDS011;60095;50.180;9.032;2022-08-27T02:14:04;6.63;;;5.15;;
72194;SDS011;60095;50.180;9.032;2022-08-27T02:16:32;5.25;;;4.75;;
72194;SDS011;60095;50.180;9.032;2022-08-27T02:18:59;6.28;;;5.68;;
72194;SDS011;60095;50.180;9.032;2022-08-27T02:21:26;16.40;;;6.57;;
72194;SDS011;60095;50.180;9.032;2022-08-27T02:23:52;5.70;;;4.97;;
72194;SDS011;60095;50.180;9.032;2022-08-27T02:26:19;6.45;;;5.70;;
72194;SDS011;60095;50.180;9.032;2022-08-27T02:28:46;9.20;;;6.70;;
72194;SDS011;60095;50.180;9.032;2022-08-27T02:31:12;8.27;;;6.45;;
72194;SDS011;60095;50.180;9.032;2022-08-27T02:33:40;6.35;;;4.85;;
72194;SDS011;60095;50.180;9.032;2022-08-27T02:36:07;12.65;;;5.82;;
72194;SDS011;60095;50.180;9.032;2022-08-27T02:38:34;7.25;;;6.32;;
72194;SDS011;60095;50.180;9.032;2022-08-27T02:41:00;9.20;;;6.07;;
72194;SDS011;60095;50.180;9.032;2022-08-27T02:43:26;10.65;;;6.28;;
72194;SDS011;60095;50.180;9.032;2022-08-27T02:45:53;11.48;;;6.95;;
72194;SDS011;60095;50.180;9.032;2022-08-27T02:48:20;9.68;;;5.97;;
72194;SDS011;60095;50.180;9.032;2022-08-27T02:50:48;9.23;;;6.70;;
72194;SDS011;60095;50.180;9.032;2022-08-27T02:53:15;9.70;;;7.07;;
72194;SDS011;60095;50.180;9.032;2022-08-27T02:55:41;8.85;;;7.95;;
72194;SDS011;60095;50.180;9.032;2022-08-27T02:58:07;6.47;;;5.88;;
72194;SDS011;60095;50.180;9.032;2022-08-27T03:00:34;6.43;;;5.82;;
72194;SDS011;60095;50.180;9.032;2022-08-27T03:03:01;32.33;;;7.47;;
72194;SDS011;60095;50.180;9.032;2022-08-27T03:05:27;13.00;;;7.13;;
72194;SDS011;60095;50.180;9.032;2022-08-27T03:07:55;7.55;;;6.13;;
72194;SDS011;60095;50.180;9.032;2022-08-27T03:10:23;9.10;;;6.38;;
72194;SDS011;60095;50.180;9.032;2022-08-27T03:12:50;6.50;;;5.90;;
72194;SDS011;60095;50.180;9.032;2022-08-27T03:15:17;7.72;;;7.03;;
72194;SDS011;60095;50.180;9.032;2022-08-27T03:17:44;10.00;;;6.03;;
72194;SDS011;60095;50.180;9.032;2022-08-27T03:20:28;13.55;;;5.90;;
72194;SDS011;60095;50.180;9.032;2022-08-27T03:22:55;4.25;;;3.80;;
72194;SDS011;60095;50.180;9.032;2022-08-27T03:25:22;9.98;;;6.55;;
72194;SDS011;60095;50.180;9.032;2022-08-27T03:27:48;9.55;;;5.50;;
72194;SDS011;60095;50.180;9.032;2022-08-27T03:30:16;12.27;;;7.15;;
72194;SDS011;60095;50.180;9.032;2022-08-27T03:32:43;5.65;;;5.15;;
72194;SDS011;60095;50.180;9.032;2022-08-27T03:35:10;8.45;;;7.15;;
72194;SDS011;60095;50.180;9.032;2022-08-27T03:37:37;6.70;;;5.25;;
72194;SDS011;60095;50.180;9.032;2022-08-27T03:40:05;7.32;;;6.63;;
72194;SDS011;60095;50.180;9.032;2022-08-27T03:42:33;6.45;;;5.88;;
72194;SDS011;60095;50.180;9.032;2022-08-27T03:44:59;5.38;;;4.18;;
72194;SDS011;60095;50.180;9.032;2022-08-27T03:47:26;8.50;;;6.10;;
72194;SDS011;60095;50.180;9.032;2022-08-27T03:49:52;7.25;;;5.93;;
72194;SDS011;60095;50.180;9.032;2022-08-27T03:52:18;10.93;;;6.97;;
72194;SDS011;60095;50.180;9.032;2022-08-27T03:54:45;8.27;;;6.32;;
72194;SDS011;60095;50.180;9.032;2022-08-27T03:57:12;10.40;;;5.78;;
72194;SDS011;60095;50.180;9.032;2022-08-27T03:59:39;6.93;;;5.78;;
72194;SDS011;60095;50.180;9.032;2022-08-27T04:02:05;6.18;;;5.40;;
72194;SDS011;60095;50.180;9.032;2022-08-27T04:04:32;9.15;;;5.88;;
72194;SDS011;60095;50.180;9.032;2022-08-27T04:06:59;5.35;;;4.78;;
72194;SDS011;60095;50.180;9.032;2022-08-27T04:09:26;6.80;;;6.18;;
72194;SDS011;60095;50.180;9.032;2022-08-27T04:11:52;4.88;;;4.15;;
72194;SDS011;60095;50.180;9.032;2022-08-27T04:14:20;6.55;;;5.60;;
72194;SDS011;60095;50.180;9.032;2022-08-27T04:16:46;16.45;;;5.65;;
72194;SDS011;60095;50.180;9.032;2022-08-27T04:19:13;10.20;;;5.55;;
72194;SDS011;60095;50.180;9.032;2022-08-27T04:21:39;7.38;;;5.25;;
72194;SDS011;60095;50.180;9.032;2022-08-27T04:24:06;12.55;;;5.72;;
72194;SDS011;60095;50.180;9.032;2022-08-27T04:26:33;5.90;;;5.32;;
72194;SDS011;60095;50.180;9.032;2022-08-27T04:29:00;6.28;;;5.65;;
72194;SDS011;60095;50.180;9.032;2022-08-27T04:31:27;5.18;;;4.78;;
72194;SDS011;60095;50.180;9.032;2022-08-27T04:33:54;10.23;;;5.88;;
72194;SDS011;60095;50.180;9.032;2022-08-27T04:36:20;7.55;;;5.97;;
72194;SDS011;60095;50.180;9.032;2022-08-27T04:38:46;5.32;;;4.82;;
72194;SDS011;60095;50.180;9.032;2022-08-27T04:41:13;6.97;;;5.32;;
72194;SDS011;60095;50.180;9.032;2022-08-27T04:43:45;9.70;;;5.53;;
72194;SDS011;60095;50.180;9.032;2022-08-27T04:46:11;8.18;;;5.93;;
72194;SDS011;60095;50.180;9.032;2022-08-27T04:48:39;11.75;;;7.72;;
72194;SDS011;60095;50.180;9.032;2022-08-27T04:51:05;7.93;;;5.63;;
72194;SDS011;60095;50.180;9.032;2022-08-27T04:53:32;8.48;;;6.00;;
72194;SDS011;60095;50.180;9.032;2022-08-27T04:55:58;11.15;;;6.10;;
72194;SDS011;60095;50.180;9.032;2022-08-27T04:58:24;8.63;;;6.93;;
72194;SDS011;60095;50.180;9.032;2022-08-27T05:00:51;8.85;;;5.22;;
72194;SDS011;60095;50.180;9.032;2022-08-27T05:03:19;7.00;;;6.07;;
72194;SDS011;60095;50.180;9.032;2022-08-27T05:05:47;13.85;;;6.60;;
72194;SDS011;60095;50.180;9.032;2022-08-27T05:08:14;7.78;;;5.68;;
72194;SDS011;60095;50.180;9.032;2022-08-27T05:10:42;7.70;;;5.80;;
72194;SDS011;60095;50.180;9.032;2022-08-27T05:13:08;15.35;;;6.03;;
72194;SDS011;60095;50.180;9.032;2022-08-27T05:15:35;9.73;;;6.43;;
72194;SDS011;60095;50.180;9.032;2022-08-27T05:18:01;7.40;;;6.40;;
72194;SDS011;60095;50.180;9.032;2022-08-27T05:20:29;7.13;;;5.60;;
72194;SDS011;60095;50.180;9.032;2022-08-27T05:22:57;9.90;;;5.85;;
72194;SDS011;60095;50.180;9.032;2022-08-27T05:25:23;7.43;;;5.50;;
72194;SDS011;60095;50.180;9.032;2022-08-27T05:27:50;12.52;;;6.07;;
72194;SDS011;60095;50.180;9.032;2022-08-27T05:30:16;5.93;;;4.97;;
72194;SDS011;60095;50.180;9.032;2022-08-27T05:32:43;6.18;;;5.57;;
72194;SDS011;60095;50.180;9.032;2022-08-27T05:35:09;8.30;;;6.68;;
72194;SDS011;60095;50.180;9.032;2022-08-27T05:37:36;6.88;;;5.28;;
72194;SDS011;60095;50.180;9.032;2022-08-27T05:40:04;6.93;;;5.57;;
72194;SDS011;60095;50.180;9.032;2022-08-27T05:42:31;7.32;;;6.47;;
72194;SDS011;60095;50.180;9.032;2022-08-27T05:44:58;11.95;;;5.13;;
72194;SDS011;60095;50.180;9.032;2022-08-27T05:47:24;8.30;;;6.35;;
72194;SDS011;60095;50.180;9.032;2022-08-27T05:49:51;7.10;;;5.15;;
72194;SDS011;60095;50.180;9.032;2022-08-27T05:52:17;7.45;;;5.15;;
72194;SDS011;60095;50.180;9.032;2022-08-27T05:54:44;10.73;;;5.80;;
72194;SDS011;60095;50.180;9.032;2022-08-27T05:57:11;5.63;;;5.13;;
72194;SDS011;60095;50.180;9.032;2022-08-27T05:59:38;7.90;;;6.63;;
72194;SDS011;60095;50.180;9.032;2022-08-27T06:02:22;7.20;;;5.28;;
72194;SDS011;60095;50.180;9.032;2022-08-27T06:04:48;8.20;;;5.82;;
72194;SDS011;60095;50.180;9.032;2022-08-27T06:07:15;5.60;;;4.82;;
72194;SDS011;60095;50.180;9.032;2022-08-27T06:09:41;9.07;;;6.32;;
72194;SDS011;60095;50.180;9.032;2022-08-27T06:12:08;14.77;;;5.13;;
72194;SDS011;60095;50.180;9.032;2022-08-27T06:14:36;8.65;;;6.22;;
72194;SDS011;60095;50.180;9.032;2022-08-27T06:17:02;10.57;;;7.00;;
72194;SDS011;60095;50.180;9.032;2022-08-27T06:19:30;8.68;;;5.70;;
72194;SDS011;60095;50.180;9.032;2022-08-27T06:21:58;11.68;;;7.35;;
72194;SDS011;60095;50.180;9.032;2022-08-27T06:24:26;12.95;;;7.50;;
72194;SDS011;60095;50.180;9.032;2022-08-27T06:26:52;8.63;;;6.38;;
72194;SDS011;60095;50.180;9.032;2022-08-27T06:29:19;5.80;;;5.20;;
72194;SDS011;60095;50.180;9.032;2022-08-27T06:31:46;8.93;;;5.85;;
72194;SDS011;60095;50.180;9.032;2022-08-27T06:34:14;17.60;;;5.93;;
72194;SDS011;60095;50.180;9.032;2022-08-27T06:36:41;8.88;;;7.03;;
72194;SDS011;60095;50.180;9.032;2022-08-27T06:39:08;7.43;;;5.63;;
72194;SDS011;60095;50.180;9.032;2022-08-27T06:41:37;5.90;;;5.25;;
72194;SDS011;60095;50.180;9.032;2022-08-27T06:44:03;6.57;;;5.95;;
72194;SDS011;60095;50.180;9.032;2022-08-27T06:46:30;6.75;;;5.57;;
72194;SDS011;60095;50.180;9.032;2022-08-27T06:48:59;8.10;;;4.85;;
72194;SDS011;60095;50.180;9.032;2022-08-27T06:51:26;5.68;;;5.25;;
72194;SDS011;60095;50.180;9.032;2022-08-27T06:53:53;19.10;;;5.65;;
72194;SDS011;60095;50.180;9.032;2022-08-27T06:56:19;8.82;;;5.70;;
72194;SDS011;60095;50.180;9.032;2022-08-27T06:58:46;5.18;;;4.68;;
72194;SDS011;60095;50.180;9.032;2022-08-27T07:01:13;9.75;;;6.38;;
72194;SDS011;60095;50.180;9.032;2022-08-27T07:03:40;8.18;;;5.28;;
72194;SDS011;60095;50.180;9.032;2022-08-27T07:06:09;12.00;;;5.90;;
72194;SDS011;60095;50.180;9.032;2022-08-27T07:08:35;4.85;;;3.38;;
72194;SDS011;60095;50.180;9.032;2022-08-27T07:11:02;9.73;;;4.22;;
72194;SDS011;60095;50.180;9.032;2022-08-27T07:13:28;3.85;;;3.53;;
72194;SDS011;60095;50.180;9.032;2022-08-27T07:15:55;8.00;;;4.53;;
72194;SDS011;60095;50.180;9.032;2022-08-27T07:18:21;7.10;;;4.10;;
72194;SDS011;60095;50.180;9.032;2022-08-27T07:20:47;5.22;;;4.65;;
72194;SDS011;60095;50.180;9.032;2022-08-27T07:23:15;8.23;;;4.50;;
72194;SDS011;60095;50.180;9.032;2022-08-27T07:25:42;7.55;;;4.00;;
72194;SDS011;60095;50.180;9.032;2022-08-27T07:28:08;5.60;;;5.07;;
72194;SDS011;60095;50.180;9.032;2022-08-27T07:30:34;4.70;;;3.67;;
72194;SDS011;60095;50.180;9.032;2022-08-27T07:33:01;7.75;;;5.03;;
72194;SDS011;60095;50.180;9.032;2022-08-27T07:35:27;8.30;;;3.58;;
72194;SDS011;60095;50.180;9.032;2022-08-27T07:37:55;6.00;;;4.30;;
72194;SDS011;60095;50.180;9.032;2022-08-27T07:40:23;4.85;;;3.47;;
72194;SDS011;60095;50.180;9.032;2022-08-27T07:42:50;4.38;;;3.95;;
72194;SDS011;60095;50.180;9.032;2022-08-27T07:48:00;6.72;;;4.07;;
72194;SDS011;60095;50.180;9.032;2022-08-27T07:50:26;5.22;;;4.18;;
72194;SDS011;60095;50.180;9.032;2022-08-27T07:52:53;4.22;;;3.78;;
72194;SDS011;60095;50.180;9.032;2022-08-27T07:55:19;3.17;;;2.53;;
72194;SDS011;60095;50.180;9.032;2022-08-27T07:57:47;7.03;;;3.80;;
72194;SDS011;60095;50.180;9.032;2022-08-27T08:00:13;8.27;;;4.90;;
72194;SDS011;60095;50.180;9.032;2022-08-27T08:02:40;8.13;;;3.90;;
72194;SDS011;60095;50.180;9.032;2022-08-27T08:05:09;4.97;;;3.33;;
72194;SDS011;60095;50.180;9.032;2022-08-27T08:07:36;4.25;;;3.45;;
72194;SDS011;60095;50.180;9.032;2022-08-27T08:10:03;8.05;;;3.97;;
72194;SDS011;60095;50.180;9.032;2022-08-27T08:12:29;9.20;;;3.15;;
72194;SDS011;60095;50.180;9.032;2022-08-27T08:14:57;4.72;;;3.58;;
72194;SDS011;60095;50.180;9.032;2022-08-27T08:17:24;3.60;;;2.42;;
72194;SDS011;60095;50.180;9.032;2022-08-27T08:19:50;3.50;;;2.97;;
72194;SDS011;60095;50.180;9.032;2022-08-27T08:22:17;2.80;;;2.60;;
72194;SDS011;60095;50.180;9.032;2022-08-27T08:24:44;2.70;;;2.50;;
72194;SDS011;60095;50.180;9.032;2022-08-27T08:27:10;3.92;;;2.72;;
72194;SDS011;60095;50.180;9.032;2022-08-27T08:29:36;4.72;;;2.95;;
72194;SDS011;60095;50.180;9.032;2022-08-27T08:32:05;9.98;;;3.45;;
72194;SDS011;60095;50.180;9.032;2022-08-27T08:34:31;3.22;;;2.47;;
72194;SDS011;60095;50.180;9.032;2022-08-27T08:36:57;3.20;;;2.53;;
72194;SDS011;60095;50.180;9.032;2022-08-27T08:39:24;5.07;;;4.00;;
72194;SDS011;60095;50.180;9.032;2022-08-27T08:41:51;6.88;;;3.17;;
72194;SDS011;60095;50.180;9.032;2022-08-27T08:44:19;2.20;;;2.00;;
72194;SDS011;60095;50.180;9.032;2022-08-27T08:46:51;2.72;;;2.42;;
72194;SDS011;60095;50.180;9.032;2022-08-27T08:49:26;3.13;;;2.30;;
72194;SDS011;60095;50.180;9.032;2022-08-27T08:51:54;7.72;;;2.55;;
72194;SDS011;60095;50.180;9.032;2022-08-27T08:54:22;4.22;;;2.85;;
72194;SDS011;60095;50.180;9.032;2022-08-27T08:56:55;2.63;;;1.92;;
72194;SDS011;60095;50.180;9.032;2022-08-27T08:59:25;2.80;;;2.58;;
72194;SDS011;60095;50.180;9.032;2022-08-27T09:01:53;3.97;;;2.58;;
72194;SDS011;60095;50.180;9.032;2022-08-27T09:04:19;4.75;;;2.88;;
72194;SDS011;60095;50.180;9.032;2022-08-27T09:06:49;2.88;;;2.60;;
72194;SDS011;60095;50.180;9.032;2022-08-27T09:09:19;3.28;;;2.30;;
72194;SDS011;60095;50.180;9.032;2022-08-27T09:11:48;9.45;;;4.07;;
72194;SDS011;60095;50.180;9.032;2022-08-27T09:14:19;3.88;;;2.45;;
72194;SDS011;60095;50.180;9.032;2022-08-27T09:16:47;3.33;;;2.17;;
72194;SDS011;60095;50.180;9.032;2022-08-27T09:19:13;5.60;;;2.88;;
72194;SDS011;60095;50.180;9.032;2022-08-27T09:21:43;5.07;;;2.47;;
72194;SDS011;60095;50.180;9.032;2022-08-27T09:24:16;3.65;;;3.20;;
72194;SDS011;60095;50.180;9.032;2022-08-27T09:26:45;4.45;;;2.72;;
72194;SDS011;60095;50.180;9.032;2022-08-27T09:29:14;2.58;;;2.35;;
72194;SDS011;60095;50.180;9.032;2022-08-27T09:31:41;2.42;;;1.85;;
72194;SDS011;60095;50.180;9.032;2022-08-27T09:34:07;10.48;;;2.25;;
72194;SDS011;60095;50.180;9.032;2022-08-27T09:36:34;4.00;;;2.88;;
72194;SDS011;60095;50.180;9.032;2022-08-27T09:39:11;3.58;;;2.55;;
72194;SDS011;60095;50.180;9.032;2022-08-27T09:41:41;3.45;;;2.50;;
72194;SDS011;60095;50.180;9.032;2022-08-27T09:44:09;3.10;;;2.78;;
72194;SDS011;60095;50.180;9.032;2022-08-27T09:46:36;9.55;;;1.75;;
72194;SDS011;60095;50.180;9.032;2022-08-27T09:49:08;3.03;;;2.08;;
72194;SDS011;60095;50.180;9.032;2022-08-27T09:51:34;6.30;;;2.53;;
72194;SDS011;60095;50.180;9.032;2022-08-27T09:54:05;3.22;;;1.83;;
72194;SDS011;60095;50.180;9.032;2022-08-27T09:56:32;2.20;;;2.00;;
72194;SDS011;60095;50.180;9.032;2022-08-27T09:59:02;3.03;;;2.35;;
72194;SDS011;60095;50.180;9.032;2022-08-27T10:01:29;4.47;;;3.70;;
72194;SDS011;60095;50.180;9.032;2022-08-27T10:04:06;2.30;;;2.10;;
72194;SDS011;60095;50.180;9.032;2022-08-27T10:06:33;6.28;;;2.85;;
72194;SDS011;60095;50.180;9.032;2022-08-27T10:09:01;5.47;;;3.30;;
72194;SDS011;60095;50.180;9.032;2022-08-27T10:11:29;2.45;;;2.25;;
72194;SDS011;60095;50.180;9.032;2022-08-27T10:13:56;2.78;;;1.88;;
72194;SDS011;60095;50.180;9.032;2022-08-27T10:19:17;2.42;;;2.05;;
72194;SDS011;60095;50.180;9.032;2022-08-27T10:21:50;7.32;;;2.72;;
72194;SDS011;60095;50.180;9.032;2022-08-27T10:24:21;3.63;;;2.17;;
72194;SDS011;60095;50.180;9.032;2022-08-27T10:26:55;8.15;;;2.80;;
72194;SDS011;60095;50.180;9.032;2022-08-27T10:29:23;2.25;;;1.95;;
72194;SDS011;60095;50.180;9.032;2022-08-27T10:32:01;4.75;;;2.05;;
72194;SDS011;60095;50.180;9.032;2022-08-27T10:34:33;3.35;;;2.17;;
72194;SDS011;60095;50.180;9.032;2022-08-27T10:37:07;8.23;;;3.33;;
72194;SDS011;60095;50.180;9.032;2022-08-27T10:39:41;5.65;;;3.60;;
72194;SDS011;60095;50.180;9.032;2022-08-27T10:42:12;1.73;;;1.63;;
72194;SDS011;60095;50.180;9.032;2022-08-27T10:44:43;3.70;;;2.47;;
72194;SDS011;60095;50.180;9.032;2022-08-27T10:47:14;3.53;;;3.22;;
72194;SDS011;60095;50.180;9.032;2022-08-27T10:49:53;1.85;;;1.75;;
72194;SDS011;60095;50.180;9.032;2022-08-27T10:52:24;3.90;;;2.70;;
72194;SDS011;60095;50.180;9.032;2022-08-27T10:54:52;2.75;;;2.55;;
72194;SDS011;60095;50.180;9.032;2022-08-27T10:57:25;5.38;;;3.25;;
72194;SDS011;60095;50.180;9.032;2022-08-27T10:59:56;2.95;;;2.40;;
72194;SDS011;60095;50.180;9.032;2022-08-27T11:02:28;2.75;;;2.00;;
72194;SDS011;60095;50.180;9.032;2022-08-27T11:04:58;4.05;;;3.35;;
72194;SDS011;60095;50.180;9.032;2022-08-27T11:07:26;3.55;;;2.65;;
72194;SDS011;60095;50.180;9.032;2022-08-27T11:09:55;4.38;;;2.45;;
72194;SDS011;60095;50.180;9.032;2022-08-27T11:12:24;2.53;;;2.05;;
72194;SDS011;60095;50.180;9.032;2022-08-27T11:14:52;1.77;;;1.67;;
72194;SDS011;60095;50.180;9.032;2022-08-27T11:17:20;2.53;;;2.33;;
72194;SDS011;60095;50.180;9.032;2022-08-27T11:19:51;2.50;;;1.75;;
72194;SDS011;60095;50.180;9.032;2022-08-27T11:22:21;3.45;;;2.90;;
72194;SDS011;60095;50.180;9.032;2022-08-27T11:24:49;5.30;;;2.22;;
72194;SDS011;60095;50.180;9.032;2022-08-27T11:27:20;2.90;;;2.38;;
72194;SDS011;60095;50.180;9.032;2022-08-27T11:29:48;3.92;;;3.10;;
72194;SDS011;60095;50.180;9.032;2022-08-27T11:32:17;4.18;;;2.67;;
72194;SDS011;60095;50.180;9.032;2022-08-27T11:34:46;4.03;;;3.28;;
72194;SDS011;60095;50.180;9.032;2022-08-27T11:37:18;3.50;;;2.45;;
72194;SDS011;60095;50.180;9.032;2022-08-27T11:39:53;4.05;;;2.72;;
72194;SDS011;60095;50.180;9.032;2022-08-27T11:42:25;4.63;;;2.10;;
72194;SDS011;60095;50.180;9.032;2022-08-27T11:44:53;2.22;;;2.03;;
72194;SDS011;60095;50.180;9.032;2022-08-27T11:47:22;2.97;;;2.67;;
72194;SDS011;60095;50.180;9.032;2022-08-27T11:49:50;3.45;;;3.00;;
72194;SDS011;60095;50.180;9.032;2022-08-27T11:52:20;4.63;;;3.40;;
72194;SDS011;60095;50.180;9.032;2022-08-27T11:54:48;2.83;;;2.28;;
72194;SDS011;60095;50.180;9.032;2022-08-27T11:57:16;2.88;;;2.45;;
72194;SDS011;60095;50.180;9.032;2022-08-27T11:59:51;3.05;;;2.75;;
72194;SDS011;60095;50.180;9.032;2022-08-27T12:02:19;8.45;;;3.90;;
72194;SDS011;60095;50.180;9.032;2022-08-27T12:04:46;6.18;;;3.67;;
72194;SDS011;60095;50.180;9.032;2022-08-27T12:07:26;4.03;;;3.08;;
72194;SDS011;60095;50.180;9.032;2022-08-27T12:09:57;4.25;;;2.60;;
72194;SDS011;60095;50.180;9.032;2022-08-27T12:12:31;5.75;;;2.38;;
72194;SDS011;60095;50.180;9.032;2022-08-27T12:14:59;6.82;;;3.58;;
72194;SDS011;60095;50.180;9.032;2022-08-27T12:17:29;2.28;;;1.85;;
72194;SDS011;60095;50.180;9.032;2022-08-27T12:20:02;3.95;;;3.47;;
72194;SDS011;60095;50.180;9.032;2022-08-27T12:22:39;6.68;;;3.60;;
72194;SDS011;60095;50.180;9.032;2022-08-27T12:25:22;4.50;;;3.15;;
72194;SDS011;60095;50.180;9.032;2022-08-27T12:27:54;6.25;;;3.50;;
72194;SDS011;60095;50.180;9.032;2022-08-27T12:30:25;3.53;;;2.30;;
72194;SDS011;60095;50.180;9.032;2022-08-27T12:32:53;2.92;;;2.72;;
72194;SDS011;60095;50.180;9.032;2022-08-27T12:35:22;3.05;;;2.75;;
72194;SDS011;60095;50.180;9.032;2022-08-27T12:37:52;4.47;;;3.35;;
72194;SDS011;60095;50.180;9.032;2022-08-27T12:40:20;5.68;;;3.22;;
72194;SDS011;60095;50.180;9.032;2022-08-27T12:42:47;7.45;;;3.35;;
72194;SDS011;60095;50.180;9.032;2022-08-27T12:45:19;4.03;;;2.25;;
72194;SDS011;60095;50.180;9.032;2022-08-27T12:47:46;6.28;;;4.53;;
72194;SDS011;60095;50.180;9.032;2022-08-27T12:50:12;4.65;;;2.55;;
72194;SDS011;60095;50.180;9.032;2022-08-27T12:52:55;5.07;;;4.45;;
72194;SDS011;60095;50.180;9.032;2022-08-27T12:55:25;3.22;;;2.30;;
72194;SDS011;60095;50.180;9.032;2022-08-27T12:57:55;5.15;;;3.35;;
72194;SDS011;60095;50.180;9.032;2022-08-27T13:00:25;3.85;;;3.33;;
72194;SDS011;60095;50.180;9.032;2022-08-27T13:05:35;2.92;;;2.60;;
72194;SDS011;60095;50.180;9.032;2022-08-27T13:08:02;5.35;;;3.47;;
72194;SDS011;60095;50.180;9.032;2022-08-27T13:10:29;8.45;;;3.45;;
72194;SDS011;60095;50.180;9.032;2022-08-27T13:12:59;2.53;;;2.25;;
72194;SDS011;60095;50.180;9.032;2022-08-27T13:15:28;2.85;;;2.53;;
72194;SDS011;60095;50.180;9.032;2022-08-27T13:17:55;4.50;;;3.65;;
72194;SDS011;60095;50.180;9.032;2022-08-27T13:20:22;4.40;;;3.38;;
72194;SDS011;60095;50.180;9.032;2022-08-27T13:22:49;5.30;;;3.95;;
72194;SDS011;60095;50.180;9.032;2022-08-27T13:25:21;3.20;;;2.97;;
72194;SDS011;60095;50.180;9.032;2022-08-27T13:27:50;4.53;;;3.20;;
72194;SDS011;60095;50.180;9.032;2022-08-27T13:30:17;3.03;;;2.53;;
72194;SDS011;60095;50.180;9.032;2022-08-27T13:32:45;5.32;;;3.50;;
72194;SDS011;60095;50.180;9.032;2022-08-27T13:35:11;6.55;;;2.97;;
72194;SDS011;60095;50.180;9.032;2022-08-27T13:37:40;6.32;;;3.00;;
72194;SDS011;60095;50.180;9.032;2022-08-27T13:40:07;7.10;;;3.55;;
72194;SDS011;60095;50.180;9.032;2022-08-27T13:42:34;5.30;;;3.22;;
72194;SDS011;60095;50.180;9.032;2022-08-27T13:45:05;2.50;;;2.05;;
72194;SDS011;60095;50.180;9.032;2022-08-27T13:47:32;4.15;;;3.20;;
72194;SDS011;60095;50.180;9.032;2022-08-27T13:50:07;8.32;;;4.13;;
72194;SDS011;60095;50.180;9.032;2022-08-27T13:52:34;4.22;;;3.30;;
72194;SDS011;60095;50.180;9.032;2022-08-27T13:55:21;2.90;;;2.55;;
72194;SDS011;60095;50.180;9.032;2022-08-27T13:57:47;4.00;;;3.30;;
72194;SDS011;60095;50.180;9.032;2022-08-27T14:00:15;3.65;;;2.95;;
72194;SDS011;60095;50.180;9.032;2022-08-27T14:02:42;8.10;;;3.55;;
72194;SDS011;60095;50.180;9.032;2022-08-27T14:05:11;3.65;;;3.03;;
72194;SDS011;60095;50.180;9.032;2022-08-27T14:07:40;4.18;;;3.70;;
72194;SDS011;60095;50.180;9.032;2022-08-27T14:10:20;7.15;;;3.28;;
72194;SDS011;60095;50.180;9.032;2022-08-27T14:12:53;6.25;;;3.35;;
72194;SDS011;60095;50.180;9.032;2022-08-27T14:15:21;4.15;;;3.70;;
72194;SDS011;60095;50.180;9.032;2022-08-27T14:17:49;3.70;;;3.28;;
72194;SDS011;60095;50.180;9.032;2022-08-27T14:20:17;4.40;;;3.45;;
72194;SDS011;60095;50.180;9.032;2022-08-27T14:22:44;3.00;;;2.70;;
72194;SDS011;60095;50.180;9.032;2022-08-27T14:25:11;3.92;;;3.53;;
72194;SDS011;60095;50.180;9.032;2022-08-27T14:27:38;5.63;;;3.50;;
72194;SDS011;60095;50.180;9.032;2022-08-27T14:30:05;3.45;;;3.15;;
72194;SDS011;60095;50.180;9.032;2022-08-27T14:32:32;7.07;;;3.45;;
72194;SDS011;60095;50.180;9.032;2022-08-27T14:34:58;4.30;;;3.78;;
72194;SDS011;60095;50.180;9.032;2022-08-27T14:37:26;2.72;;;2.35;;
72194;SDS011;60095;50.180;9.032;2022-08-27T14:39:52;3.58;;;3.28;;
72194;SDS011;60095;50.180;9.032;2022-08-27T14:42:19;5.95;;;5.10;;
72194;SDS011;60095;50.180;9.032;2022-08-27T14:44:45;4.10;;;3.28;;
72194;SDS011;60095;50.180;9.032;2022-08-27T14:47:12;3.53;;;2.92;;
72194;SDS011;60095;50.180;9.032;2022-08-27T14:49:41;6.07;;;3.33;;
72194;SDS011;60095;50.180;9.032;2022-08-27T14:52:09;3.55;;;2.80;;
72194;SDS011;60095;50.180;9.032;2022-08-27T14:54:37;8.13;;;3.90;;
72194;SDS011;60095;50.180;9.032;2022-08-27T14:57:04;4.15;;;3.53;;
72194;SDS011;60095;50.180;9.032;2022-08-27T14:59:31;3.83;;;2.85;;